• Join FlightAware (Why Join?)
  • Login
  • US Flag 
04:01PM EDT


 

Airport Tracker/Info


-or-


 

Live Flight TrackerFlight Track Log ✈ N822BB ✈ 01-Jul-2013 ✈ KHTO - KOXC

Flight Track Log - Related Links

Times and Time Zones

All times are in EDT time to prevent confusion due to time zone crossing. See the N822BB flight status page for this flight to view local times or setup timezone preferences in your user account.

Time Position Orientation Groundspeed Altitude Reporting Facility
EDT Latitude Longitude Course Direction KTS MPH feet Rate Location/Type
10:38AM 40.9667 -72.3167 304° West 109 125 1,500  Level New York TRACON
10:39AM 40.9833 -72.3500 304° West 128 147 2,100 600 Climbing New York TRACON
10:40AM 41.0000 -72.4000 294° West 127 146 2,800 720 Climbing New York TRACON
10:41AM 41.0167 -72.4333 304° West 132 152 3,600 600 Climbing New York TRACON
10:42AM 41.0333 -72.4667 304° West 130 150 4,100 240 Climbing New York TRACON
10:43AM 41.0667 -72.5167 311° West 141 162 4,100  Level New York TRACON
10:44AM 41.0833 -72.5500 304° West 154 177 4,100  Level New York TRACON
10:45AM 41.1000 -72.6000 294° West 152 175 4,100  Level New York TRACON
10:46AM 41.1333 -72.6500 312° West 154 177 4,100  Level New York TRACON
10:47AM 41.1500 -72.6833 304° West 151 174 4,100  Level New York TRACON
10:47AM 41.1833 -72.7333 312° West 150 173 4,100  Level New York TRACON
10:48AM 41.2000 -72.7833 294° West 153 176 4,100  Level New York TRACON
10:49AM 41.2333 -72.8167 323° Northwest 148 170 4,100  Level New York TRACON
10:50AM 41.2500 -72.8667 294° West 151 174 4,100  Level New York TRACON
10:51AM 41.2667 -72.9167 294° West 155 178 4,100  Level New York TRACON
10:52AM 41.3000 -72.9500 323° Northwest 155 178 4,100  Level New York TRACON
10:53AM 41.3167 -73.0000 294° West 150 173 4,100  Level New York TRACON
10:54AM 41.3333 -73.0667 288° West 166 191 4,100  Level New York TRACON
10:55AM 41.3167 -73.1000 236° Southwest 141 162 4,100  Level New York TRACON
10:57AM 41.3529 -73.0955 North  Level FlightAware Approximate
11:05AM 41.4667 -73.1333 294° West  Level FlightAware Approximate
11:06AM 41.4786 -73.1352 294° West  Level Estimated
11:07AM 41.4786 -73.1352 294° West  Level Estimated
11:08AM 41.4786 -73.1352 294° West  Level Estimated
11:09AM 41.4786 -73.1352 294° West  Level Estimated